createdAt,value
2017-08-02T00:00:46.816Z,21.35
2017-08-02T00:01:59.375Z,21.37
2017-08-02T00:03:11.633Z,21.29
2017-08-02T00:04:24.226Z,21.3
2017-08-02T00:05:36.496Z,21.29
2017-08-02T00:06:49.118Z,21.32
2017-08-02T00:08:01.375Z,21.29
2017-08-02T00:09:13.984Z,21.28
2017-08-02T00:10:26.605Z,21.23
2017-08-02T00:11:39.203Z,21.26
2017-08-02T00:12:51.411Z,21.23
2017-08-02T00:14:04.062Z,21.23
2017-08-02T00:15:16.398Z,21.17
2017-08-02T00:16:28.710Z,21.28
2017-08-02T00:17:41.312Z,21.22
2017-08-02T00:18:53.944Z,21.25
2017-08-02T00:20:06.523Z,21.17
2017-08-02T00:21:18.825Z,21.19
2017-08-02T00:22:31.406Z,21.15
2017-08-02T00:23:43.996Z,21.13
2017-08-02T00:24:56.268Z,21.1
2017-08-02T00:26:09.075Z,21.08
2017-08-02T00:27:21.640Z,21.08
2017-08-02T00:28:34.249Z,21.03
2017-08-02T00:29:46.551Z,21.04
2017-08-02T00:30:58.799Z,21.03
2017-08-02T00:32:11.404Z,21.03
2017-08-02T00:33:24.002Z,20.9
2017-08-02T00:34:35.624Z,20.96
2017-08-02T00:35:48.200Z,21.03
2017-08-02T00:37:00.539Z,21
2017-08-02T00:38:12.810Z,20.92
2017-08-02T00:39:25.085Z,20.9
2017-08-02T00:40:37.042Z,20.89
2017-08-02T00:41:49.665Z,20.86
2017-08-02T00:43:01.388Z,20.86
2017-08-02T00:44:13.946Z,20.77
2017-08-02T00:45:26.473Z,20.86
2017-08-02T00:46:38.805Z,20.93
2017-08-02T00:47:50.821Z,20.83
2017-08-02T00:49:03.378Z,20.85
2017-08-02T00:50:15.919Z,20.78
2017-08-02T00:51:28.204Z,20.82
2017-08-02T00:52:40.739Z,20.82
2017-08-02T00:53:53.321Z,20.75
2017-08-02T00:55:05.678Z,20.82
2017-08-02T00:56:17.975Z,20.7
2017-08-02T00:57:30.519Z,20.8
2017-08-02T00:58:43.090Z,20.75
2017-08-02T00:59:55.061Z,20.73
2017-08-02T01:01:07.657Z,20.71
2017-08-02T01:02:19.991Z,20.8
2017-08-02T01:03:32.586Z,20.78
2017-08-02T01:04:44.879Z,20.75
2017-08-02T01:05:57.519Z,20.7
2017-08-02T01:07:09.186Z,20.74
2017-08-02T01:08:21.810Z,20.74
2017-08-02T01:09:34.416Z,20.63
2017-08-02T01:10:46.725Z,20.73
2017-08-02T01:11:59.013Z,20.63
2017-08-02T01:13:11.341Z,20.63
2017-08-02T01:14:23.948Z,20.7
2017-08-02T01:15:36.208Z,20.66
2017-08-02T01:16:48.853Z,20.66
2017-08-02T01:18:01.132Z,20.67
2017-08-02T01:19:13.678Z,20.63
2017-08-02T01:20:25.971Z,20.66
2017-08-02T01:21:37.985Z,20.6
2017-08-02T01:22:50.295Z,20.56
2017-08-02T01:24:02.648Z,20.53
2017-08-02T01:25:15.487Z,20.56
2017-08-02T01:26:28.123Z,20.53
2017-08-02T01:27:40.400Z,20.55
2017-08-02T01:28:53.019Z,20.48
2017-08-02T01:30:05.016Z,20.49
2017-08-02T01:31:17.586Z,20.55
2017-08-02T01:32:29.563Z,20.49
2017-08-02T01:33:42.230Z,20.58
2017-08-02T01:34:54.821Z,20.6
2017-08-02T01:36:06.840Z,20.46
2017-08-02T01:37:19.366Z,20.55
2017-08-02T01:38:31.932Z,20.52
2017-08-02T01:39:44.202Z,20.59
2017-08-02T01:40:56.455Z,20.56
2017-08-02T01:42:09.036Z,20.56
2017-08-02T01:43:21.621Z,20.56
2017-08-02T01:44:34.179Z,20.58
2017-08-02T01:45:46.424Z,20.58
2017-08-02T01:46:59.039Z,20.56
2017-08-02T01:48:11.652Z,20.59
2017-08-02T01:49:24.294Z,20.63
2017-08-02T01:50:36.939Z,20.59
2017-08-02T01:51:49.573Z,20.59
2017-08-02T01:53:02.125Z,20.6
2017-08-02T01:54:14.456Z,20.58
2017-08-02T01:55:26.745Z,20.53
2017-08-02T01:56:38.735Z,20.49
2017-08-02T01:57:51.265Z,20.52
2017-08-02T01:59:03.587Z,20.56
2017-08-02T02:00:16.127Z,20.53
2017-08-02T02:01:28.431Z,20.5
2017-08-02T02:02:40.378Z,20.4
2017-08-02T02:03:52.681Z,20.48
2017-08-02T02:05:04.934Z,20.39
2017-08-02T02:06:17.572Z,20.42
2017-08-02T02:07:30.208Z,20.46
2017-08-02T02:08:42.732Z,20.39
2017-08-02T02:09:54.722Z,20.37
2017-08-02T02:11:07.053Z,20.32
2017-08-02T02:12:19.645Z,20.33
2017-08-02T02:13:31.862Z,20.21
2017-08-02T02:14:44.138Z,20.22
2017-08-02T02:15:56.723Z,20.21
2017-08-02T02:17:09.277Z,20.24
2017-08-02T02:18:21.531Z,20.24
2017-08-02T02:19:34.417Z,20.3
2017-08-02T02:20:46.703Z,20.11
2017-08-02T02:21:59.011Z,20.17
2017-08-02T02:23:11.023Z,20.12
2017-08-02T02:24:23.582Z,20.17
2017-08-02T02:25:35.890Z,20.15
2017-08-02T02:26:48.459Z,20.18
2017-08-02T02:28:01.118Z,20.07
2017-08-02T02:29:13.112Z,20
2017-08-02T02:30:25.721Z,20.03
2017-08-02T02:31:38.294Z,20.04
2017-08-02T02:32:50.866Z,19.97
2017-08-02T02:34:03.123Z,19.87
2017-08-02T02:35:15.639Z,20.02
2017-08-02T02:36:28.211Z,19.93
2017-08-02T02:37:40.529Z,19.89
2017-08-02T02:38:52.533Z,19.93
2017-08-02T02:40:04.585Z,19.81
2017-08-02T02:41:15.944Z,19.82
2017-08-02T02:42:28.566Z,19.77
2017-08-02T02:43:41.254Z,19.77
2017-08-02T02:44:53.210Z,19.77
2017-08-02T02:46:05.829Z,19.64
2017-08-02T02:47:18.400Z,19.72
2017-08-02T02:48:30.993Z,19.63
2017-08-02T02:49:43.701Z,19.78
2017-08-02T02:50:56.321Z,19.63
2017-08-02T02:52:08.896Z,19.66
2017-08-02T02:53:21.446Z,19.62
2017-08-02T02:54:34.003Z,19.62
2017-08-02T02:55:46.656Z,19.62
2017-08-02T02:56:58.644Z,19.64
2017-08-02T02:58:10.626Z,19.66
2017-08-02T02:59:23.270Z,19.6
2017-08-02T03:00:35.819Z,19.63
2017-08-02T03:01:48.082Z,19.53
2017-08-02T03:03:00.988Z,19.55
2017-08-02T03:04:13.565Z,19.49
2017-08-02T03:05:25.855Z,19.56
2017-08-02T03:06:38.125Z,19.53
2017-08-02T03:07:50.733Z,19.42
2017-08-02T03:09:03.318Z,19.55
2017-08-02T03:10:15.851Z,19.49
2017-08-02T03:11:28.142Z,19.42
2017-08-02T03:12:40.712Z,19.48
2017-08-02T03:13:53.016Z,19.48
2017-08-02T03:15:05.378Z,19.44
2017-08-02T03:16:17.653Z,19.45
2017-08-02T03:17:30.253Z,19.39
2017-08-02T03:18:42.860Z,19.39
2017-08-02T03:19:55.491Z,19.34
2017-08-02T03:21:07.810Z,19.38
2017-08-02T03:22:20.448Z,19.42
2017-08-02T03:23:33.084Z,19.38
2017-08-02T03:24:45.689Z,19.37
2017-08-02T03:25:58.242Z,19.34
2017-08-02T03:27:10.916Z,19.37
2017-08-02T03:28:23.527Z,19.29
2017-08-02T03:29:36.181Z,19.3
2017-08-02T03:30:48.416Z,19.27
2017-08-02T03:32:00.390Z,19.23
2017-08-02T03:33:12.709Z,19.22
2017-08-02T03:34:24.738Z,19.2
2017-08-02T03:35:36.402Z,19.2
2017-08-02T03:36:48.773Z,19.2
2017-08-02T03:38:01.373Z,19.17
2017-08-02T03:39:13.960Z,19.17
2017-08-02T03:40:26.547Z,19.08
2017-08-02T03:41:39.173Z,19.12
2017-08-02T03:42:51.736Z,19.09
2017-08-02T03:44:04.332Z,19.08
2017-08-02T03:45:16.945Z,19.05
2017-08-02T03:46:29.251Z,19.11
2017-08-02T03:47:41.882Z,19.08
2017-08-02T03:48:54.176Z,18.97
2017-08-02T03:50:06.484Z,19
2017-08-02T03:51:18.486Z,18.94
2017-08-02T03:52:31.077Z,19.04
2017-08-02T03:53:43.747Z,18.96
2017-08-02T03:54:56.312Z,18.91
2017-08-02T03:56:08.283Z,18.86
2017-08-02T03:57:20.898Z,18.91
2017-08-02T03:58:33.524Z,18.89
2017-08-02T03:59:46.155Z,18.86
2017-08-02T04:00:58.502Z,18.89
2017-08-02T04:02:10.819Z,18.86
2017-08-02T04:03:23.134Z,18.88
2017-08-02T04:04:35.718Z,18.86
2017-08-02T04:05:48.279Z,18.86
2017-08-02T04:07:00.222Z,18.94
2017-08-02T04:08:12.815Z,18.89
2017-08-02T04:09:25.034Z,19.04
2017-08-02T04:10:37.317Z,18.98
2017-08-02T04:11:49.653Z,18.94
2017-08-02T04:13:01.932Z,18.94
2017-08-02T04:14:14.240Z,19.07
2017-08-02T04:15:26.775Z,19.12
2017-08-02T04:16:39.353Z,19.11
2017-08-02T04:17:51.930Z,19.12
2017-08-02T04:19:03.965Z,19.12
2017-08-02T04:20:16.663Z,19.16
2017-08-02T04:21:29.255Z,19.2
2017-08-02T04:22:41.807Z,19.29
2017-08-02T04:23:54.397Z,19.29
2017-08-02T04:25:07.195Z,19.34
2017-08-02T04:26:19.781Z,19.35
2017-08-02T04:27:32.040Z,19.34
2017-08-02T04:28:44.698Z,19.45
2017-08-02T04:29:56.719Z,19.39
2017-08-02T04:31:09.003Z,19.39
2017-08-02T04:32:21.237Z,19.55
2017-08-02T04:33:33.217Z,19.59
2017-08-02T04:34:45.503Z,19.62
2017-08-02T04:35:58.109Z,19.7
2017-08-02T04:37:10.029Z,19.67
2017-08-02T04:38:22.601Z,19.77
2017-08-02T04:39:34.842Z,19.74
2017-08-02T04:40:47.716Z,19.66
2017-08-02T04:41:59.688Z,19.78
2017-08-02T04:43:11.374Z,19.78
2017-08-02T04:44:23.614Z,19.79
2017-08-02T04:45:36.265Z,19.77
2017-08-02T04:46:48.842Z,19.79
2017-08-02T04:48:01.144Z,19.77
2017-08-02T04:49:13.790Z,19.9
2017-08-02T04:50:26.068Z,19.81
2017-08-02T04:51:38.667Z,19.85
2017-08-02T04:52:51.059Z,19.9
2017-08-02T04:54:03.673Z,19.92
2017-08-02T04:55:15.919Z,19.89
2017-08-02T04:56:28.487Z,19.9
2017-08-02T04:57:40.449Z,19.84
2017-08-02T04:58:52.439Z,19.77
2017-08-02T05:00:04.748Z,19.78
2017-08-02T05:01:17.087Z,19.85
2017-08-02T05:02:29.365Z,19.89
2017-08-02T05:03:41.921Z,19.78
2017-08-02T05:04:54.544Z,19.78
2017-08-02T05:06:06.883Z,19.82
2017-08-02T05:07:19.454Z,19.77
2017-08-02T05:08:32.038Z,19.81
2017-08-02T05:09:44.320Z,19.78
2017-08-02T05:10:56.648Z,19.77
2017-08-02T05:12:09.344Z,19.81
2017-08-02T05:13:21.855Z,19.79
2017-08-02T05:14:34.432Z,19.9
2017-08-02T05:15:46.670Z,19.74
2017-08-02T05:16:58.970Z,19.9
2017-08-02T05:18:11.205Z,19.78
2017-08-02T05:19:23.787Z,19.87
2017-08-02T05:20:36.433Z,19.87
2017-08-02T05:21:49.101Z,19.89
2017-08-02T05:23:01.411Z,19.87
2017-08-02T05:24:14.030Z,19.84
2017-08-02T05:25:26.648Z,19.93
2017-08-02T05:26:38.881Z,19.85
2017-08-02T05:27:51.496Z,19.93
2017-08-02T05:29:03.818Z,19.94
2017-08-02T05:30:15.796Z,19.97
2017-08-02T05:31:28.067Z,20.04
2017-08-02T05:32:40.663Z,20.08
2017-08-02T05:33:53.271Z,20.04
2017-08-02T05:35:05.237Z,20.1
2017-08-02T05:36:17.829Z,20.17
2017-08-02T05:37:30.348Z,20.17
2017-08-02T05:38:42.980Z,20.12
2017-08-02T05:39:55.626Z,20.15
2017-08-02T05:41:08.183Z,20.17
2017-08-02T05:42:20.740Z,20.29
2017-08-02T05:43:33.077Z,20.32
2017-08-02T05:44:45.650Z,20.34
2017-08-02T05:45:58.263Z,20.49
2017-08-02T05:47:10.533Z,20.44
2017-08-02T05:48:23.111Z,20.53
2017-08-02T05:49:35.382Z,20.59
2017-08-02T05:50:47.878Z,20.63
2017-08-02T05:52:00.474Z,20.66
2017-08-02T05:53:12.744Z,20.75
2017-08-02T05:54:24.983Z,20.8
2017-08-02T05:55:37.492Z,20.89
2017-08-02T05:56:49.868Z,20.9
2017-08-02T05:58:01.906Z,20.93
2017-08-02T05:59:14.492Z,21.1
2017-08-02T06:00:26.778Z,21.04
2017-08-02T06:01:39.402Z,21.19
2017-08-02T06:02:52.024Z,21.25
2017-08-02T06:04:04.350Z,21.19
2017-08-02T06:05:16.631Z,21.25
2017-08-02T06:06:28.877Z,21.3
2017-08-02T06:07:41.527Z,21.3
2017-08-02T06:08:53.815Z,21.45
2017-08-02T06:10:06.428Z,21.56
2017-08-02T06:11:18.756Z,21.58
2017-08-02T06:12:31.384Z,21.78
2017-08-02T06:13:43.917Z,21.88
2017-08-02T06:14:56.506Z,22.08
2017-08-02T06:16:09.104Z,22.12
2017-08-02T06:17:21.386Z,22.22
2017-08-02T06:18:33.401Z,22.31
2017-08-02T06:19:45.382Z,22.46
2017-08-02T06:20:57.943Z,22.44
2017-08-02T06:22:10.220Z,22.65
2017-08-02T06:23:22.843Z,22.77
2017-08-02T06:24:35.411Z,22.74
2017-08-02T06:25:47.983Z,22.86
2017-08-02T06:27:00.261Z,22.92
2017-08-02T06:28:12.574Z,22.99
2017-08-02T06:29:25.147Z,23.04
2017-08-02T06:30:37.720Z,23.07
2017-08-02T06:31:50.260Z,23.18
2017-08-02T06:33:02.844Z,23.34
2017-08-02T06:34:14.838Z,23.51
2017-08-02T06:35:27.478Z,23.73
2017-08-02T06:36:40.090Z,23.94
2017-08-02T06:37:52.067Z,24.09
2017-08-02T06:39:04.664Z,24.09
2017-08-02T06:40:17.543Z,24.1
2017-08-02T06:41:30.134Z,24.13
2017-08-02T06:42:42.434Z,24.22
2017-08-02T06:43:54.366Z,24.24
2017-08-02T06:45:06.670Z,24.31
2017-08-02T06:46:19.214Z,24.38
2017-08-02T06:47:31.884Z,24.46
2017-08-02T06:48:44.474Z,24.5
2017-08-02T06:49:56.783Z,24.46
2017-08-02T06:51:09.373Z,24.47
2017-08-02T06:52:21.911Z,24.44
2017-08-02T06:53:34.516Z,24.47
2017-08-02T06:54:47.078Z,24.43
2017-08-02T06:55:59.036Z,24.38
2017-08-02T06:57:11.628Z,24.51
2017-08-02T06:58:23.886Z,24.43
2017-08-02T06:59:36.437Z,24.46
2017-08-02T07:00:48.994Z,24.5
2017-08-02T07:02:01.272Z,24.51
2017-08-02T07:03:13.875Z,24.58
2017-08-02T07:04:25.834Z,24.55
2017-08-02T07:05:38.087Z,24.56
2017-08-02T07:06:50.712Z,24.58
2017-08-02T07:08:03.341Z,24.58
2017-08-02T07:09:15.593Z,24.5
2017-08-02T07:10:28.158Z,24.56
2017-08-02T07:11:40.407Z,24.56
2017-08-02T07:12:52.675Z,24.58
2017-08-02T07:14:05.282Z,24.69
2017-08-02T07:15:17.316Z,24.78
2017-08-02T07:16:29.639Z,24.86
2017-08-02T07:17:42.168Z,24.84
2017-08-02T07:18:54.511Z,24.94
2017-08-02T07:20:06.484Z,24.93
2017-08-02T07:21:18.795Z,25
2017-08-02T07:22:31.045Z,25.01
2017-08-02T07:23:43.863Z,25.09
2017-08-02T07:24:56.166Z,25.18
2017-08-02T07:26:08.778Z,25.3
2017-08-02T07:27:21.333Z,25.39
2017-08-02T07:28:33.964Z,25.54
2017-08-02T07:29:46.293Z,25.77
2017-08-02T07:30:58.314Z,25.89
2017-08-02T07:32:10.564Z,25.95
2017-08-02T07:33:22.829Z,26.1
2017-08-02T07:34:35.154Z,26.22
2017-08-02T07:35:47.765Z,26.34
2017-08-02T07:37:00.372Z,26.59
2017-08-02T07:38:12.918Z,26.79
2017-08-02T07:39:25.162Z,26.97
2017-08-02T07:40:37.434Z,27.25
2017-08-02T07:41:49.750Z,27.34
2017-08-02T07:43:02.390Z,27.58
2017-08-02T07:44:14.398Z,27.72
2017-08-02T07:45:26.941Z,27.81
2017-08-02T07:46:39.545Z,27.95
2017-08-02T07:47:51.863Z,28.04
2017-08-02T07:49:04.178Z,28.23
2017-08-02T07:50:16.466Z,28.37
2017-08-02T07:51:28.466Z,28.38
2017-08-02T07:52:40.804Z,28.52
2017-08-02T07:53:53.110Z,28.64
2017-08-02T07:55:05.131Z,28.59
2017-08-02T07:56:17.401Z,28.65
2017-08-02T07:57:29.776Z,28.7
2017-08-02T07:58:42.431Z,28.7
2017-08-02T07:59:54.463Z,28.78
2017-08-02T08:01:06.822Z,28.78
2017-08-02T08:02:19.464Z,28.68
2017-08-02T08:03:31.457Z,28.77
2017-08-02T08:04:44.067Z,28.93
2017-08-02T08:05:56.431Z,28.96
2017-08-02T08:07:08.770Z,29.03
2017-08-02T08:08:21.359Z,29.05
2017-08-02T08:09:33.658Z,29.1
2017-08-02T08:10:46.254Z,29.31
2017-08-02T08:11:58.590Z,29.28
2017-08-02T08:13:10.894Z,29.47
2017-08-02T08:14:23.217Z,29.46
2017-08-02T08:15:35.816Z,29.59
2017-08-02T08:16:48.444Z,29.76
2017-08-02T08:18:01.285Z,29.81
2017-08-02T08:19:13.901Z,30.1
2017-08-02T08:20:26.541Z,30.29
2017-08-02T08:21:38.860Z,30.31
2017-08-02T08:22:51.132Z,30.4
2017-08-02T08:24:03.183Z,30.48
2017-08-02T08:25:15.810Z,30.46
2017-08-02T08:26:27.850Z,30.51
2017-08-02T08:27:40.457Z,30.49
2017-08-02T08:28:52.760Z,30.52
2017-08-02T08:30:05.086Z,30.52
2017-08-02T08:31:17.134Z,30.52
2017-08-02T08:32:28.784Z,30.33
2017-08-02T08:33:41.382Z,30.16
2017-08-02T08:34:53.671Z,30.2
2017-08-02T08:36:06.246Z,30.06
2017-08-02T08:37:18.526Z,30.05
2017-08-02T08:38:31.139Z,30.03
2017-08-02T08:39:43.506Z,29.94
2017-08-02T08:40:55.779Z,29.94
2017-08-02T08:42:08.103Z,29.92
2017-08-02T08:43:20.785Z,29.9
2017-08-02T08:44:32.732Z,29.92
2017-08-02T08:45:44.977Z,29.87
2017-08-02T08:46:57.317Z,29.8
2017-08-02T08:48:10.027Z,29.71
2017-08-02T08:49:22.602Z,29.81
2017-08-02T08:50:35.135Z,29.71
2017-08-02T08:51:47.102Z,29.79
2017-08-02T08:52:59.428Z,29.76
2017-08-02T08:54:11.460Z,29.79
2017-08-02T08:55:24.057Z,29.76
2017-08-02T08:56:36.340Z,29.83
2017-08-02T08:57:48.587Z,29.76
2017-08-02T08:59:00.922Z,29.74
2017-08-02T09:00:13.230Z,29.68
2017-08-02T09:01:25.182Z,29.59
2017-08-02T09:02:37.452Z,29.53
2017-08-02T09:03:49.473Z,29.52
2017-08-02T09:05:02.098Z,29.44
2017-08-02T09:06:14.058Z,29.49
2017-08-02T09:07:26.630Z,29.37
2017-08-02T09:08:39.186Z,29.31
2017-08-02T09:09:51.497Z,29.39
2017-08-02T09:11:03.442Z,29.15
2017-08-02T09:12:16.062Z,29.2
2017-08-02T09:13:28.072Z,29.07
2017-08-02T09:14:39.844Z,29.07
2017-08-02T09:15:52.474Z,29.03
2017-08-02T09:17:04.478Z,29.05
2017-08-02T09:18:16.502Z,29.05
2017-08-02T09:19:29.104Z,29.02
2017-08-02T09:20:41.703Z,29.07
2017-08-02T09:21:53.993Z,29.05
2017-08-02T09:23:06.563Z,29
2017-08-02T09:24:18.566Z,28.94
2017-08-02T09:25:30.880Z,28.86
2017-08-02T09:26:42.876Z,28.9
2017-08-02T09:27:55.178Z,28.94
2017-08-02T09:29:07.863Z,29
2017-08-02T09:30:20.502Z,29.07
2017-08-02T09:31:33.121Z,29.12
2017-08-02T09:32:45.079Z,29.15
2017-08-02T09:33:57.709Z,29.27
2017-08-02T09:35:10.311Z,29.27
2017-08-02T09:36:22.940Z,29.28
2017-08-02T09:37:35.569Z,29.35
2017-08-02T09:38:47.880Z,29.31
2017-08-02T09:40:00.219Z,29.39
2017-08-02T09:41:12.453Z,29.39
2017-08-02T09:42:25.272Z,29.4
2017-08-02T09:43:37.990Z,29.35
2017-08-02T09:44:50.303Z,29.42
2017-08-02T09:46:02.674Z,29.49
2017-08-02T09:47:15.363Z,29.59
2017-08-02T09:48:27.971Z,29.55
2017-08-02T09:49:39.983Z,29.59
2017-08-02T09:50:52.582Z,29.59
2017-08-02T09:52:05.164Z,29.74
2017-08-02T09:53:17.770Z,29.74
2017-08-02T09:54:29.740Z,29.87
2017-08-02T09:55:42.290Z,30.01
2017-08-02T09:56:53.968Z,30.31
2017-08-02T09:58:06.566Z,30.43
2017-08-02T09:59:19.125Z,30.54
2017-08-02T10:00:31.118Z,30.58
2017-08-02T10:01:43.503Z,30.67
2017-08-02T10:02:55.850Z,30.89
2017-08-02T10:04:08.127Z,31.07
2017-08-02T10:05:20.441Z,31.17
2017-08-02T10:06:33.018Z,31.32
2017-08-02T10:07:45.675Z,31.52
2017-08-02T10:08:58.227Z,31.67
2017-08-02T10:10:10.546Z,31.77
2017-08-02T10:11:22.833Z,31.87
2017-08-02T10:12:35.159Z,31.73
2017-08-02T10:13:47.830Z,31.67
2017-08-02T10:15:00.151Z,31.7
2017-08-02T10:16:12.745Z,31.7
2017-08-02T10:17:25.103Z,31.67
2017-08-02T10:18:37.419Z,31.7
2017-08-02T10:19:49.404Z,31.82
2017-08-02T10:21:02.012Z,31.79
2017-08-02T10:22:14.318Z,31.69
2017-08-02T10:23:26.920Z,31.74
2017-08-02T10:24:38.628Z,31.6
2017-08-02T10:25:51.239Z,31.57
2017-08-02T10:27:03.578Z,31.36
2017-08-02T10:28:16.189Z,31.15
2017-08-02T10:29:28.809Z,31.13
2017-08-02T10:30:40.777Z,31.05
2017-08-02T10:31:53.151Z,30.96
2017-08-02T10:33:05.147Z,30.67
2017-08-02T10:34:17.768Z,30.49
2017-08-02T10:35:30.031Z,30.31
2017-08-02T10:36:42.582Z,30.17
2017-08-02T10:37:53.992Z,30.05
2017-08-02T10:39:06.623Z,30.03
2017-08-02T10:40:19.202Z,30.16
2017-08-02T10:41:31.544Z,30.31
2017-08-02T10:42:43.837Z,30.29
2017-08-02T10:43:56.147Z,30.44
2017-08-02T10:45:08.483Z,30.59
2017-08-02T10:46:21.105Z,30.89
2017-08-02T10:47:33.648Z,31.17
2017-08-02T10:48:45.943Z,31.29
2017-08-02T10:49:58.531Z,31.48
2017-08-02T10:51:10.829Z,31.85
2017-08-02T10:52:23.099Z,32.15
2017-08-02T10:53:35.738Z,32.53
2017-08-02T10:54:48.309Z,32.75
2017-08-02T10:56:00.848Z,32.83
2017-08-02T10:57:13.083Z,32.82
2017-08-02T10:58:25.735Z,32.9
2017-08-02T10:59:38.022Z,32.86
2017-08-02T11:00:50.056Z,32.79
2017-08-02T11:02:02.600Z,32.71
2017-08-02T11:03:15.213Z,32.66
2017-08-02T11:04:27.466Z,32.49
2017-08-02T11:05:40.064Z,32.42
2017-08-02T11:06:51.446Z,32.27
2017-08-02T11:08:04.020Z,32.09
2017-08-02T11:09:16.640Z,31.98
2017-08-02T11:10:28.887Z,31.89
2017-08-02T11:11:41.165Z,31.72
2017-08-02T11:12:53.479Z,31.57
2017-08-02T11:14:05.795Z,31.47
2017-08-02T11:15:18.372Z,31.3
2017-08-02T11:16:30.411Z,31.22
2017-08-02T11:17:43.047Z,31.1
2017-08-02T11:18:55.714Z,31.04
2017-08-02T11:20:07.441Z,31.13
2017-08-02T11:21:20.092Z,31.08
2017-08-02T11:22:32.717Z,31.1
2017-08-02T11:23:45.382Z,31.14
2017-08-02T11:24:57.997Z,31.13
2017-08-02T11:26:10.603Z,31.1
2017-08-02T11:27:23.264Z,31.23
2017-08-02T11:28:35.815Z,31.35
2017-08-02T11:29:48.081Z,31.45
2017-08-02T11:31:00.404Z,31.51
2017-08-02T11:32:12.699Z,31.55
2017-08-02T11:33:25.295Z,31.67
2017-08-02T11:34:37.538Z,31.72
2017-08-02T11:35:50.185Z,31.78
2017-08-02T11:37:02.780Z,31.85
2017-08-02T11:38:15.302Z,32
2017-08-02T11:39:27.897Z,31.87
2017-08-02T11:40:39.886Z,32.07
2017-08-02T11:41:52.539Z,32.08
2017-08-02T11:43:05.164Z,32.17
2017-08-02T11:44:17.713Z,32.23
2017-08-02T11:45:30.329Z,32.37
2017-08-02T11:46:42.624Z,32.39
2017-08-02T11:47:54.943Z,32.51
2017-08-02T11:49:07.516Z,32.6
2017-08-02T11:50:20.126Z,32.73
2017-08-02T11:51:32.110Z,32.83
2017-08-02T11:52:44.720Z,32.82
2017-08-02T11:53:57.051Z,32.9
2017-08-02T11:55:09.653Z,32.91
2017-08-02T11:56:22.339Z,32.88
2017-08-02T11:57:34.629Z,32.86
2017-08-02T11:58:47.480Z,32.94
2017-08-02T11:59:59.746Z,33.1
2017-08-02T12:01:12.372Z,33.28
2017-08-02T12:02:25.022Z,33.47
2017-08-02T12:03:37.025Z,33.75
2017-08-02T12:04:49.340Z,34.03
2017-08-02T12:06:01.901Z,34.55
2017-08-02T12:07:14.213Z,34.81
2017-08-02T12:08:26.924Z,35.13
2017-08-02T12:09:39.581Z,35.54
2017-08-02T12:10:52.184Z,35.68
2017-08-02T12:12:04.449Z,35.79
2017-08-02T12:13:17.077Z,35.93
2017-08-02T12:14:29.645Z,36.06
2017-08-02T12:15:41.917Z,36.26
2017-08-02T12:16:54.252Z,36.45
2017-08-02T12:18:06.820Z,36.66
2017-08-02T12:19:18.831Z,36.75
2017-08-02T12:20:31.459Z,36.92
2017-08-02T12:21:43.722Z,37.01
2017-08-02T12:22:56.311Z,36.99
2017-08-02T12:24:08.632Z,36.89
2017-08-02T12:25:20.878Z,36.94
2017-08-02T12:26:33.539Z,36.92
2017-08-02T12:27:46.160Z,36.8
2017-08-02T12:28:58.541Z,36.72
2017-08-02T12:30:10.868Z,36.63
2017-08-02T12:31:23.208Z,36.51
2017-08-02T12:32:35.878Z,36.43
2017-08-02T12:33:48.493Z,36.25
2017-08-02T12:35:00.858Z,36
2017-08-02T12:36:13.507Z,35.84
2017-08-02T12:37:25.775Z,35.54
2017-08-02T12:38:38.397Z,35.34
2017-08-02T12:39:51.050Z,35.19
2017-08-02T12:41:03.367Z,34.98
2017-08-02T12:42:16.235Z,34.82
2017-08-02T12:43:28.496Z,34.71
2017-08-02T12:44:40.844Z,34.78
2017-08-02T12:45:52.851Z,34.58
2017-08-02T12:47:04.828Z,34.44
2017-08-02T12:48:17.138Z,34.32
2017-08-02T12:49:29.792Z,34.18
2017-08-02T12:50:42.054Z,34.11
2017-08-02T12:51:54.379Z,33.95
2017-08-02T12:53:06.652Z,33.88
2017-08-02T12:54:19.295Z,33.79
2017-08-02T12:55:31.919Z,33.58
2017-08-02T12:56:44.507Z,33.5
2017-08-02T12:57:56.886Z,33.38
2017-08-02T12:59:09.130Z,33.31
2017-08-02T13:00:21.749Z,33.29
2017-08-02T13:01:34.408Z,33.1
2017-08-02T13:02:46.713Z,33.01
2017-08-02T13:03:58.785Z,32.85
2017-08-02T13:05:11.088Z,32.75
2017-08-02T13:06:23.745Z,32.63
2017-08-02T13:07:36.402Z,32.45
2017-08-02T13:08:48.679Z,32.29
2017-08-02T13:10:01.009Z,31.98
2017-08-02T13:11:13.604Z,31.85
2017-08-02T13:12:26.219Z,31.73
2017-08-02T13:13:38.557Z,31.54
2017-08-02T13:14:50.850Z,31.51
2017-08-02T13:16:02.870Z,31.45
2017-08-02T13:17:15.169Z,31.3
2017-08-02T13:18:27.823Z,31.32
2017-08-02T13:19:40.650Z,31.23
2017-08-02T13:20:53.021Z,31.29
2017-08-02T13:22:05.258Z,31.17
2017-08-02T13:23:17.570Z,31.1
2017-08-02T13:24:29.821Z,31.13
2017-08-02T13:25:42.116Z,31.13
2017-08-02T13:26:54.383Z,31.04
2017-08-02T13:28:06.647Z,31.14
2017-08-02T13:29:19.256Z,31
2017-08-02T13:30:31.585Z,31.04
2017-08-02T13:31:43.890Z,30.96
2017-08-02T13:32:56.191Z,30.96
2017-08-02T13:34:08.760Z,30.99
2017-08-02T13:35:21.429Z,30.92
2017-08-02T13:36:33.731Z,30.99
2017-08-02T13:37:46.285Z,31
2017-08-02T13:38:58.592Z,30.98
2017-08-02T13:40:11.254Z,31
2017-08-02T13:41:23.587Z,31.05
2017-08-02T13:42:36.200Z,30.95
2017-08-02T13:43:48.474Z,30.99
2017-08-02T13:45:01.089Z,31.07
2017-08-02T13:46:13.335Z,31.14
2017-08-02T13:47:25.907Z,31.1
2017-08-02T13:48:38.570Z,31.2
2017-08-02T13:49:50.819Z,31.25
2017-08-02T13:51:03.126Z,31.26
2017-08-02T13:52:15.840Z,31.42
2017-08-02T13:53:28.379Z,31.41
2017-08-02T13:54:41.023Z,31.52
2017-08-02T13:55:52.989Z,31.51
2017-08-02T13:57:05.614Z,31.55
2017-08-02T13:58:18.457Z,31.54
2017-08-02T13:59:31.042Z,31.73
2017-08-02T14:00:43.362Z,31.87
2017-08-02T14:01:55.594Z,31.86
2017-08-02T14:03:07.603Z,32.08
2017-08-02T14:04:19.862Z,32.19
2017-08-02T14:05:32.471Z,32.45
2017-08-02T14:06:45.091Z,32.6
2017-08-02T14:07:57.030Z,32.73
2017-08-02T14:09:09.377Z,32.94
2017-08-02T14:10:22.009Z,32.98
2017-08-02T14:11:34.359Z,33.03
2017-08-02T14:12:46.934Z,33.1
2017-08-02T14:13:59.250Z,33.15
2017-08-02T14:15:11.256Z,33.23
2017-08-02T14:16:23.869Z,33.22
2017-08-02T14:17:36.210Z,33.17
2017-08-02T14:18:48.575Z,33.35
2017-08-02T14:20:00.937Z,33.51
2017-08-02T14:21:13.307Z,33.55
2017-08-02T14:22:25.889Z,33.61
2017-08-02T14:23:38.258Z,33.55
2017-08-02T14:24:50.539Z,33.51
2017-08-02T14:26:02.801Z,33.5
2017-08-02T14:27:15.433Z,33.5
2017-08-02T14:28:28.048Z,33.42
2017-08-02T14:29:40.300Z,33.42
2017-08-02T14:30:52.229Z,33.58
2017-08-02T14:32:04.251Z,33.7
2017-08-02T14:33:16.270Z,33.84
2017-08-02T14:34:28.860Z,33.87
2017-08-02T14:35:41.439Z,34.04
2017-08-02T14:36:54.015Z,34.16
2017-08-02T14:38:06.416Z,34.21
2017-08-02T14:39:18.731Z,34.32
2017-08-02T14:40:31.083Z,34.26
2017-08-02T14:41:43.723Z,34.4
2017-08-02T14:42:56.303Z,34.44
2017-08-02T14:44:08.315Z,34.38
2017-08-02T14:45:20.908Z,34.16
2017-08-02T14:46:33.513Z,34.03
2017-08-02T14:47:46.163Z,33.7
2017-08-02T14:48:58.748Z,33.48
2017-08-02T14:50:11.376Z,33.15
2017-08-02T14:51:23.340Z,33.05
2017-08-02T14:52:35.954Z,32.81
2017-08-02T14:53:48.592Z,32.71
2017-08-02T14:55:00.596Z,32.53
2017-08-02T14:56:13.249Z,32.34
2017-08-02T14:57:25.859Z,32.2
2017-08-02T14:58:38.202Z,32.07
2017-08-02T14:59:50.455Z,31.85
2017-08-02T15:01:02.818Z,31.66
2017-08-02T15:02:15.390Z,31.44
2017-08-02T15:03:27.910Z,31.33
2017-08-02T15:04:40.466Z,31.15
2017-08-02T15:05:52.749Z,30.96
2017-08-02T15:07:04.987Z,30.74
2017-08-02T15:08:17.626Z,30.59
2017-08-02T15:09:30.254Z,30.46
2017-08-02T15:10:42.536Z,30.36
2017-08-02T15:11:54.807Z,30.29
2017-08-02T15:13:07.067Z,29.96
2017-08-02T15:14:19.662Z,29.95
2017-08-02T15:15:31.934Z,29.69
2017-08-02T15:16:44.204Z,29.74
2017-08-02T15:17:56.841Z,29.69
2017-08-02T15:19:09.486Z,29.59
2017-08-02T15:20:22.142Z,29.4
2017-08-02T15:21:34.456Z,29.34
2017-08-02T15:22:46.768Z,29.21
2017-08-02T15:23:59.365Z,29.15
2017-08-02T15:25:11.665Z,29
2017-08-02T15:26:23.699Z,29
2017-08-02T15:27:36.006Z,28.96
2017-08-02T15:28:48.662Z,28.82
2017-08-02T15:30:01.274Z,28.78
2017-08-02T15:31:13.904Z,28.68
2017-08-02T15:32:25.663Z,28.67
2017-08-02T15:33:38.273Z,28.62
2017-08-02T15:34:50.849Z,28.55
2017-08-02T15:36:03.140Z,28.38
2017-08-02T15:37:15.791Z,28.35